Time;durP1;ratioP1;P1;durP2;ratioP2;P2;SDS_P1;SDS_P2;PMS_P1;PMS_P2;Temp;Humidity;BMP_temperature;BMP_pressure;BME280_temperature;BME280_humidity;BME280_pressure;Samples;Min_cycle;Max_cycle;Signal;HPM_P1;HPM_P2
2022/04/07 00:01:58;;;;;;;2.30;1.47;;;;;;;;;;5067750;28;20684;-88
2022/04/07 00:04:25;;;;;;;1.60;1.50;;;;;;;;;;5067321;28;20705;-87
2022/04/07 00:06:52;;;;;;;1.57;1.47;;;;;;;;;;5067142;28;20648;-88
2022/04/07 00:09:20;;;;;;;2.53;1.50;;;;;;;;;;5067712;28;20628;-87
2022/04/07 00:11:49;;;;;;;1.70;1.40;;;;;;;;;;5067550;28;20629;-87
2022/04/07 00:14:18;;;;;;;1.47;1.33;;;;;;;;;;5067563;28;20632;-87
2022/04/07 00:16:47;;;;;;;2.10;1.60;;;9.20;99.90;;;;;;5067631;28;20632;-88
2022/04/07 00:19:15;;;;;;;1.60;1.50;;;;;;;;;;5067635;28;20641;-89
2022/04/07 00:21:46;;;;;;;1.50;1.30;;;;;;;;;;5067118;28;20744;-87
2022/04/07 00:24:15;;;;;;;1.63;1.53;;;;;;;;;;5067530;28;20210;-88
2022/04/07 00:26:44;;;;;;;2.27;1.70;;;;;;;;;;5067044;28;20661;-87
2022/04/07 00:29:12;;;;;;;1.55;1.45;;;;;;;;;;5067716;28;20626;-87
2022/04/07 00:31:40;;;;;;;1.30;1.20;;;9.10;99.90;;;;;;5067346;28;20277;-87
2022/04/07 00:34:09;;;;;;;2.17;1.97;;;;;;;;;;5066908;28;20641;-88
2022/04/07 00:36:36;;;;;;;2.00;1.90;;;;;;;;;;5067419;28;20616;-86
2022/04/07 00:39:03;;;;;;;1.80;1.57;;;;;;;;;;5067525;28;20622;-88
2022/04/07 00:41:30;;;;;;;1.30;1.30;;;9.50;99.90;;;;;;5067120;28;20678;-87
2022/04/07 00:43:57;;;;;;;1.60;1.50;;;;;;;;;;5067016;28;20616;-87
2022/04/07 00:46:25;;;;;;;1.33;1.23;;;;;;;;;;5066571;28;20653;-87
2022/04/07 00:48:52;;;;;;;4.90;0.97;;;;;;;;;;5066807;28;21055;-86
2022/04/07 00:51:20;;;;;;;1.37;1.30;;;;;;;;;;5067087;28;20991;-87
2022/04/07 00:53:48;;;;;;;0.93;0.93;;;;;;;;;;5066567;28;20640;-86
2022/04/07 00:56:15;;;;;;;1.37;1.27;;;;;;;;;;5046805;28;20699;-88
2022/04/07 00:58:42;;;;;;;1.23;1.13;;;;;;;;;;5058743;28;20628;-87
2022/04/07 01:01:09;;;;;;;1.80;1.70;;;;;;;;;;5066388;28;20657;-87
2022/04/07 01:03:37;;;;;;;1.07;1.07;;;;;;;;;;5064210;28;20706;-88
2022/04/07 01:06:04;;;;;;;1.50;1.40;;;;;;;;;;5060853;28;20635;-88
2022/04/07 01:08:33;;;;;;;3.53;1.90;;;;;;;;;;5066802;28;20685;-87
2022/04/07 01:11:02;;;;;;;1.50;1.20;;;;;;;;;;5066985;28;20617;-87
2022/04/07 01:13:46;;;;;;;2.00;1.80;;;9.10;99.90;;;;;;5066975;28;20621;-87
2022/04/07 01:16:14;;;;;;;1.50;1.40;;;;;;;;;;5066984;28;20209;-86
2022/04/07 01:18:41;;;;;;;1.50;1.40;;;;;;;;;;5066317;28;21179;-87
2022/04/07 01:21:10;;;;;;;1.63;1.53;;;8.90;99.90;;;;;;5066466;28;20722;-87
2022/04/07 01:23:40;;;;;;;1.53;1.20;;;9.00;99.90;;;;;;5066661;28;20628;-87
2022/04/07 01:26:10;;;;;;;1.40;1.30;;;9.10;99.90;;;;;;5066401;28;20723;-88
2022/04/07 01:28:37;;;;;;;2.53;1.63;;;9.00;99.90;;;;;;5066559;28;20624;-86
2022/04/07 01:31:05;;;;;;;1.43;1.33;;;;;;;;;;5066782;28;20631;-87
2022/04/07 01:33:33;;;;;;;2.03;1.93;;;9.00;99.90;;;;;;5066000;28;20632;-88
2022/04/07 01:36:00;;;;;;;4.60;2.10;;;;;;;;;;5069614;28;21001;-87
2022/04/07 01:38:28;;;;;;;1.73;1.63;;;;;;;;;;5069952;28;20258;-87
2022/04/07 01:40:55;;;;;;;1.80;1.70;;;;;;;;;;5059883;28;20625;-86
2022/04/07 01:43:24;;;;;;;1.90;1.80;;;9.10;99.90;;;;;;5069643;28;21149;-86
2022/04/07 01:45:52;;;;;;;2.35;2.10;;;;;;;;;;5069664;28;20727;-87
2022/04/07 01:48:21;;;;;;;1.98;1.77;;;9.20;99.90;;;;;;5069701;28;20198;-86
2022/04/07 01:50:48;;;;;;;1.77;1.67;;;8.60;99.90;;;;;;5069794;28;20216;-86
2022/04/07 01:53:16;;;;;;;2.72;2.35;;;;;;;;;;5068655;28;20311;-86
2022/04/07 01:55:44;;;;;;;2.60;2.40;;;9.00;99.90;;;;;;5070129;28;20228;-87
2022/04/07 01:58:12;;;;;;;1.98;1.88;;;9.30;99.90;;;;;;5069381;28;20625;-86
2022/04/07 02:00:42;;;;;;;1.50;1.40;;;;;;;;;;5070024;28;20381;-86
2022/04/07 02:03:09;;;;;;;2.42;2.22;;;9.00;99.90;;;;;;5069619;28;21045;-86
2022/04/07 02:05:36;;;;;;;1.60;1.50;;;;;;;;;;5050822;28;20214;-86
2022/04/07 02:08:04;;;;;;;2.13;1.70;;;9.40;99.90;;;;;;5064940;28;20856;-86
2022/04/07 02:10:32;;;;;;;1.93;1.57;;;;;;;;;;5070709;28;20664;-86
2022/04/07 02:12:59;;;;;;;1.20;1.10;;;9.10;99.90;;;;;;5069951;28;20628;-86
2022/04/07 02:15:26;;;;;;;1.52;1.42;;;;;;;;;;5069060;28;20268;-87
2022/04/07 02:17:55;;;;;;;1.43;1.33;;;9.00;99.90;;;;;;5069614;28;20232;-87
2022/04/07 02:20:22;;;;;;;1.37;1.27;;;;;;;;;;5069148;28;20720;-87
2022/04/07 02:22:49;;;;;;;1.55;1.45;;;;;;;;;;5068827;28;20652;-86
2022/04/07 02:25:17;;;;;;;1.50;1.40;;;;;;;;;;5069588;28;20200;-85
2022/04/07 02:27:45;;;;;;;1.42;1.33;;;;;;;;;;5067434;28;20213;-85
2022/04/07 02:30:13;;;;;;;1.67;1.20;;;9.00;99.90;;;;;;5069375;28;20539;-86
2022/04/07 02:32:41;;;;;;;1.70;1.60;;;;;;;;;;5068668;28;20620;-86
2022/04/07 02:35:12;;;;;;;1.20;1.10;;;9.00;99.90;;;;;;5068648;28;20771;-86
2022/04/07 02:37:40;;;;;;;1.57;1.43;;;;;;;;;;5068992;28;20716;-85
2022/04/07 02:40:08;;;;;;;1.77;1.60;;;9.00;99.90;;;;;;5064723;28;20669;-87
2022/04/07 02:42:36;;;;;;;1.10;1.10;;;;;;;;;;5067147;28;20287;-88
2022/04/07 02:45:03;;;;;;;1.65;1.55;;;;;;;;;;5068144;28;20596;-87
2022/04/07 02:47:31;;;;;;;1.75;1.65;;;;;;;;;;5068414;28;20206;-86
2022/04/07 02:49:59;;;;;;;1.27;1.17;;;9.00;99.90;;;;;;5068367;28;20756;-87
2022/04/07 02:52:27;;;;;;;1.03;1.03;;;8.80;99.90;;;;;;5065393;28;21029;-86
2022/04/07 02:54:54;;;;;;;1.58;1.20;;;;;;;;;;5068793;28;20628;-87
2022/04/07 02:57:30;;;;;;;1.42;1.33;;;8.80;99.90;;;;;;5068187;28;20216;-87
2022/04/07 02:59:57;;;;;;;0.90;0.90;;;;;;;;;;5068811;28;20249;-87
2022/04/07 03:02:24;;;;;;;1.20;1.10;;;8.80;99.90;;;;;;5068545;28;20736;-86
2022/04/07 03:04:52;;;;;;;1.23;1.05;;;;;;;;;;5059836;28;20313;-86
2022/04/07 03:07:19;;;;;;;3.10;0.93;;;;;;;;;;5068243;28;20289;-86
2022/04/07 03:09:47;;;;;;;1.17;1.10;;;8.60;99.90;;;;;;5068482;28;20207;-86
2022/04/07 03:12:15;;;;;;;1.23;1.10;;;;;;;;;;5068327;28;20260;-86
2022/04/07 03:14:42;;;;;;;1.80;1.10;;;;;;;;;;5068361;28;20241;-86
2022/04/07 03:17:09;;;;;;;0.70;0.70;;;;;;;;;;5068167;28;20204;-86
2022/04/07 03:19:37;;;;;;;1.58;1.30;;;;;;;;;;5069895;28;20619;-86
2022/04/07 03:22:04;;;;;;;1.60;0.85;;;8.20;99.90;;;;;;5083529;28;20221;-85
2022/04/07 03:24:32;;;;;;;0.95;0.95;;;;;;;;;;5069750;28;20213;-86
2022/04/07 03:27:04;;;;;;;0.85;0.85;;;8.60;99.90;;;;;;5055796;28;20631;-86
2022/04/07 03:29:31;;;;;;;1.58;1.27;;;8.20;99.90;;;;;;5066738;28;20639;-86
2022/04/07 03:31:58;;;;;;;0.80;0.80;;;;;;;;;;5068162;28;20198;-86
2022/04/07 03:34:26;;;;;;;4.38;1.50;;;;;;;;;;5067713;28;20223;-86
2022/04/07 03:36:56;;;;;;;1.05;1.05;;;;;;;;;;5067524;28;20672;-89
2022/04/07 03:39:24;;;;;;;2.47;1.45;;;8.70;99.90;;;;;;5067381;28;20278;-88
2022/04/07 03:41:51;;;;;;;1.33;0.70;;;;;;;;;;5068015;28;20618;-87
2022/04/07 03:44:19;;;;;;;0.68;0.68;;;8.70;99.90;;;;;;5067596;28;20718;-87
2022/04/07 03:46:46;;;;;;;1.30;1.00;;;;;;;;;;5058800;28;20213;-88
2022/04/07 03:49:14;;;;;;;1.17;1.10;;;;;;;;;;5060322;28;20241;-88
2022/04/07 03:51:41;;;;;;;1.25;1.15;;;;;;;;;;5062222;28;20335;-87
2022/04/07 03:54:08;;;;;;;1.00;0.70;;;;;;;;;;5067469;28;20228;-86
2022/04/07 03:56:35;;;;;;;1.27;0.82;;;;;;;;;;5067223;28;20299;-86
2022/04/07 03:59:03;;;;;;;0.80;0.80;;;;;;;;;;5067840;28;20627;-86
2022/04/07 04:01:31;;;;;;;0.90;0.80;;;8.50;99.90;;;;;;5067698;28;20221;-88
2022/04/07 04:03:58;;;;;;;0.60;0.60;;;8.10;99.90;;;;;;5068061;28;20251;-87
2022/04/07 04:06:25;;;;;;;1.10;1.00;;;;;;;;;;5067057;28;20236;-87
2022/04/07 04:08:52;;;;;;;1.77;1.10;;;;;;;;;;5068332;28;20295;-87
2022/04/07 04:11:19;;;;;;;1.10;1.00;;;;;;;;;;5067730;28;20209;-87
2022/04/07 04:13:47;;;;;;;1.00;1.00;;;;;;;;;;5068457;28;20203;-86
2022/04/07 04:16:16;;;;;;;1.65;1.05;;;;;;;;;;5068089;28;20783;-87
2022/04/07 04:18:44;;;;;;;1.00;0.90;;;;;;;;;;5067927;28;20218;-87
2022/04/07 04:21:11;;;;;;;1.65;1.30;;;8.20;99.90;;;;;;5067056;28;20240;-86
2022/04/07 04:23:40;;;;;;;1.15;0.90;;;;;;;;;;5067977;28;20304;-86
2022/04/07 04:26:07;;;;;;;2.15;1.60;;;;;;;;;;5067428;28;20229;-87
2022/04/07 04:28:34;;;;;;;1.48;1.30;;;;;;;;;;5067903;28;20269;-86
2022/04/07 04:31:01;;;;;;;1.50;1.40;;;;;;;;;;5067694;28;20206;-87
2022/04/07 04:33:28;;;;;;;1.10;1.00;;;8.60;99.90;;;;;;5067752;28;20220;-85
2022/04/07 04:35:56;;;;;;;0.77;0.77;;;8.60;99.90;;;;;;5067347;28;20676;-88
2022/04/07 04:38:23;;;;;;;0.93;0.93;;;8.60;99.90;;;;;;5068593;28;20230;-86
2022/04/07 04:40:50;;;;;;;1.80;1.20;;;;;;;;;;5058641;28;20732;-86
2022/04/07 04:43:17;;;;;;;2.60;0.98;;;;;;;;;;5068049;28;20692;-86
2022/04/07 04:45:44;;;;;;;3.67;1.50;;;;;;;;;;5067524;28;20279;-87
2022/04/07 04:48:12;;;;;;;1.00;0.93;;;;;;;;;;5055623;28;20292;-87
2022/04/07 04:50:39;;;;;;;1.35;1.25;;;;;;;;;;5067825;28;20237;-87
2022/04/07 04:53:07;;;;;;;1.48;0.75;;;;;;;;;;5067681;28;20226;-87
2022/04/07 04:55:35;;;;;;;1.10;1.00;;;;;;;;;;5067642;28;20296;-87
2022/04/07 04:58:02;;;;;;;1.00;1.00;;;;;;;;;;5067460;28;20208;-86
2022/04/07 05:00:29;;;;;;;1.75;1.30;;;;;;;;;;5067841;28;20212;-86
2022/04/07 05:02:56;;;;;;;0.60;0.60;;;;;;;;;;5067244;28;20746;-87
2022/04/07 05:05:24;;;;;;;0.60;0.60;;;;;;;;;;5058679;28;20281;-87
2022/04/07 05:07:51;;;;;;;0.93;0.85;;;;;;;;;;5065108;28;20941;-86
2022/04/07 05:10:19;;;;;;;0.90;0.90;;;;;;;;;;5069827;28;20213;-87
2022/04/07 05:12:46;;;;;;;1.20;1.10;;;;;;;;;;5071273;28;20916;-87
2022/04/07 05:15:14;;;;;;;0.88;0.88;;;;;;;;;;5070642;28;20346;-85
2022/04/07 05:17:41;;;;;;;0.90;0.80;;;;;;;;;;5070621;28;20224;-86
2022/04/07 05:20:10;;;;;;;0.90;0.90;;;8.60;99.90;;;;;;5070633;28;20213;-86
2022/04/07 05:22:37;;;;;;;0.50;0.50;;;;;;;;;;5070984;28;20213;-86
2022/04/07 05:25:04;;;;;;;3.72;1.00;;;;;;;;;;5070715;28;20680;-85
2022/04/07 05:27:36;;;;;;;0.98;0.88;;;;;;;;;;5070908;28;20240;-86
2022/04/07 05:30:03;;;;;;;2.15;0.88;;;;;;;;;;5070392;28;20202;-87
2022/04/07 05:32:31;;;;;;;0.77;0.75;;;;;;;;;;5071103;28;20252;-87
2022/04/07 05:34:58;;;;;;;0.80;0.80;;;;;;;;;;5068895;28;20206;-86
2022/04/07 05:37:25;;;;;;;0.65;0.65;;;8.70;99.90;;;;;;5070170;28;20289;-86
2022/04/07 05:39:52;;;;;;;1.70;1.00;;;;;;;;;;5070907;28;20612;-87
2022/04/07 05:42:19;;;;;;;3.05;1.00;;;;;;;;;;5064337;28;20256;-86
2022/04/07 05:44:48;;;;;;;1.15;0.73;;;9.10;99.90;;;;;;5068519;28;20217;-86
2022/04/07 05:47:15;;;;;;;1.00;1.00;;;9.10;99.90;;;;;;5056709;28;20254;-87
2022/04/07 05:49:42;;;;;;;0.77;0.60;;;;;;;;;;5070316;28;20746;-86
2022/04/07 05:52:10;;;;;;;0.57;0.57;;;;;;;;;;5070494;28;20255;-87
2022/04/07 05:54:37;;;;;;;1.10;0.70;;;9.80;99.90;;;;;;5070435;28;20301;-86
2022/04/07 05:57:05;;;;;;;1.15;0.70;;;8.90;99.90;;;;;;5070364;28;20266;-88
2022/04/07 05:59:32;;;;;;;0.93;0.70;;;9.40;99.90;;;;;;5070434;28;20279;-87
2022/04/07 06:02:00;;;;;;;0.65;0.65;;;;;;;;;;5070182;28;20201;-87
2022/04/07 06:04:28;;;;;;;0.68;0.68;;;;;;;;;;5067812;28;20254;-87
2022/04/07 06:06:55;;;;;;;0.90;0.70;;;;;;;;;;5069653;28;20552;-88
2022/04/07 06:09:22;;;;;;;1.75;1.27;;;;;;;;;;5061553;28;20652;-87
2022/04/07 06:11:49;;;;;;;0.93;0.88;;;9.30;99.90;;;;;;5058404;28;20210;-87
2022/04/07 06:14:16;;;;;;;1.40;0.65;;;;;;;;;;5067481;28;20207;-88
2022/04/07 06:16:43;;;;;;;0.57;0.57;;;;;;;;;;5069771;28;20205;-87
2022/04/07 06:19:12;;;;;;;0.70;0.60;;;;;;;;;;5063866;28;21038;-89
2022/04/07 06:21:40;;;;;;;0.50;0.50;;;;;;;;;;5066050;28;20265;-87
2022/04/07 06:24:08;;;;;;;0.80;0.75;;;9.30;99.90;;;;;;5067096;28;20226;-89
2022/04/07 06:26:35;;;;;;;0.63;0.63;;;;;;;;;;5068783;28;20198;-88
2022/04/07 06:29:02;;;;;;;0.50;0.38;;;;;;;;;;5066149;28;20201;-86
2022/04/07 06:31:29;;;;;;;0.88;0.77;;;9.30;99.90;;;;;;5070077;28;20200;-86
2022/04/07 06:33:56;;;;;;;2.10;0.60;;;;;;;;;;5070566;28;20230;-87
2022/04/07 06:36:26;;;;;;;0.90;0.70;;;9.80;96.40;;;;;;5069654;28;20728;-87
2022/04/07 06:38:53;;;;;;;0.67;0.40;;;;;;;;;;5064088;28;21181;-88
2022/04/07 06:41:20;;;;;;;0.40;0.40;;;;;;;;;;5065182;28;20633;-88
2022/04/07 06:43:47;;;;;;;0.80;0.70;;;;;;;;;;5066369;28;20745;-89
2022/04/07 06:46:14;;;;;;;0.57;0.47;;;;;;;;;;5058097;28;20770;-89
2022/04/07 06:48:42;;;;;;;0.50;0.40;;;;;;;;;;5066014;28;20749;-89
2022/04/07 06:51:09;;;;;;;0.60;0.40;;;;;;;;;;5067222;28;20632;-89
2022/04/07 06:53:38;;;;;;;0.63;0.40;;;;;;;;;;5068461;28;20621;-88
2022/04/07 06:56:05;;;;;;;0.50;0.50;;;;;;;;;;5061372;28;20737;-88
2022/04/07 06:58:32;;;;;;;0.77;0.50;;;;;;;;;;5062148;28;20617;-88
2022/04/07 07:00:59;;;;;;;0.40;0.40;;;;;;;;;;5068585;28;20763;-88
2022/04/07 07:03:27;;;;;;;0.87;0.60;;;;;;;;;;5065960;28;20706;-89
2022/04/07 07:05:58;;;;;;;0.50;0.43;;;;;;;;;;5065824;28;21136;-90
2022/04/07 07:08:25;;;;;;;1.13;0.50;;;9.90;96.10;;;;;;5061758;28;20688;-88
2022/04/07 07:10:54;;;;;;;0.50;0.50;;;10.00;96.00;;;;;;5066979;28;20724;-88
2022/04/07 07:13:23;;;;;;;0.93;0.40;;;10.00;96.00;;;;;;5067789;28;20687;-88
2022/04/07 07:15:50;;;;;;;0.50;0.50;;;;;;;;;;5056752;28;21208;-88
2022/04/07 07:18:17;;;;;;;0.93;0.60;;;;;;;;;;5064502;28;20721;-87
2022/04/07 07:20:45;;;;;;;0.90;0.60;;;;;;;;;;5063397;28;20657;-88
2022/04/07 07:23:12;;;;;;;0.67;0.67;;;;;;;;;;5065133;28;20778;-88
2022/04/07 07:25:39;;;;;;;0.70;0.70;;;;;;;;;;5064311;28;20634;-89
2022/04/07 07:28:09;;;;;;;0.70;0.50;;;;;;;;;;5063699;28;20629;-88
2022/04/07 07:30:36;;;;;;;0.37;0.37;;;;;;;;;;5064450;28;20648;-87
2022/04/07 07:33:03;;;;;;;0.40;0.40;;;;;;;;;;5064437;28;20680;-88
2022/04/07 07:35:30;;;;;;;0.47;0.47;;;;;;;;;;5060870;28;21216;-88
2022/04/07 07:37:58;;;;;;;0.70;0.60;;;10.70;97.20;;;;;;5057640;28;20726;-89
2022/04/07 07:40:27;;;;;;;0.40;0.30;;;10.80;99.90;;;;;;5067677;28;20678;-89
2022/04/07 07:42:56;;;;;;;0.60;0.50;;;;;;;;;;5064921;28;20646;-89
2022/04/07 07:45:25;;;;;;;1.43;0.70;;;11.10;99.90;;;;;;5064833;28;20651;-88
2022/04/07 07:47:53;;;;;;;0.40;0.40;;;;;;;;;;5066156;28;20625;-89
2022/04/07 07:50:21;;;;;;;0.57;0.50;;;;;;;;;;5066021;28;20628;-89
2022/04/07 07:52:48;;;;;;;0.40;0.30;;;;;;;;;;5063594;28;20690;-89
2022/04/07 07:55:15;;;;;;;0.40;0.40;;;;;;;;;;5061983;28;21309;-88
2022/04/07 07:57:43;;;;;;;1.30;0.63;;;;;;;;;;5064661;28;21057;-89
2022/04/07 08:00:14;;;;;;;0.50;0.50;;;11.40;98.20;;;;;;5060393;28;20629;-89
2022/04/07 08:02:52;;;;;;;0.60;0.60;;;;;;;;;;5068288;28;20625;-89
2022/04/07 08:05:19;;;;;;;1.30;0.70;;;;;;;;;;5069162;28;20656;-90
2022/04/07 08:07:47;;;;;;;0.43;0.43;;;;;;;;;;5066927;28;20990;-90
2022/04/07 08:10:15;;;;;;;2.73;0.57;;;;;;;;;;5067142;28;20672;-88
2022/04/07 08:12:43;;;;;;;1.23;0.60;;;;;;;;;;5070068;28;21026;-89
2022/04/07 08:15:11;;;;;;;0.80;0.50;;;;;;;;;;5067061;28;20609;-90
2022/04/07 08:17:38;;;;;;;0.60;0.60;;;;;;;;;;5066783;28;20633;-89
2022/04/07 08:20:27;;;;;;;0.60;0.50;;;;;;;;;;5068592;28;20703;-91
2022/04/07 08:23:12;;;;;;;1.07;0.93;;;;;;;;;;5069996;28;20763;-89
2022/04/07 08:25:40;;;;;;;0.80;0.70;;;;;;;;;;5070326;28;21257;-90
2022/04/07 08:28:07;;;;;;;0.63;0.60;;;;;;;;;;5064686;28;20620;-89
2022/04/07 08:30:35;;;;;;;0.50;0.43;;;;;;;;;;5066536;28;20712;-89
2022/04/07 08:33:03;;;;;;;0.40;0.37;;;;;;;;;;5065232;28;21469;-89
2022/04/07 08:35:32;;;;;;;0.50;0.50;;;;;;;;;;5068394;28;20633;-90
2022/04/07 08:37:59;;;;;;;0.67;0.57;;;;;;;;;;5067696;28;20656;-90
2022/04/07 08:40:27;;;;;;;0.50;0.40;;;;;;;;;;5066656;28;20819;-88
2022/04/07 08:42:54;;;;;;;0.50;0.30;;;;;;;;;;5067413;28;20682;-87
2022/04/07 08:45:21;;;;;;;0.60;0.50;;;;;;;;;;5070906;28;20750;-89
2022/04/07 08:47:49;;;;;;;2.33;0.40;;;;;;;;;;5071294;28;20724;-89
2022/04/07 08:50:18;;;;;;;0.50;0.40;;;;;;;;;;5071724;28;20647;-89
2022/04/07 08:52:46;;;;;;;0.40;0.40;;;12.40;94.00;;;;;;5070096;28;21153;-89
2022/04/07 08:55:14;;;;;;;4.53;1.33;;;;;;;;;;5069092;28;20686;-89
2022/04/07 08:57:42;;;;;;;0.70;0.40;;;12.60;92.90;;;;;;5071917;28;20691;-89
2022/04/07 09:00:10;;;;;;;0.40;0.20;;;;;;;;;;5072291;28;20660;-89
2022/04/07 09:02:37;;;;;;;0.37;0.27;;;12.60;91.90;;;;;;5073715;28;20619;-89
2022/04/07 09:05:10;;;;;;;0.40;0.40;;;12.10;91.80;;;;;;5075591;28;20660;-90
2022/04/07 09:07:38;;;;;;;1.03;0.40;;;;;;;;;;5068750;28;20670;-89
2022/04/07 09:10:07;;;;;;;0.30;0.30;;;12.50;89.60;;;;;;5070931;28;20716;-89
2022/04/07 09:12:38;;;;;;;2.83;0.50;;;;;;;;;;5069066;28;20667;-89
2022/04/07 09:15:05;;;;;;;1.00;0.30;;;;;;;;;;5070867;28;22565;-90
2022/04/07 09:17:48;;;;;;;0.60;0.30;;;12.40;88.80;;;;;;5069285;28;20657;-89
2022/04/07 09:20:15;;;;;;;0.80;0.40;;;;;;;;;;5064510;28;20682;-90
2022/04/07 09:22:43;;;;;;;0.43;0.40;;;;;;;;;;5061876;28;20660;-89
2022/04/07 09:25:20;;;;;;;0.50;0.33;;;;;;;;;;5067988;28;20645;-89
2022/04/07 09:27:57;;;;;;;0.80;0.40;;;;;;;;;;5069570;28;20633;-89
2022/04/07 09:30:24;;;;;;;0.40;0.30;;;;;;;;;;5067403;28;20719;-89
2022/04/07 09:32:51;;;;;;;0.67;0.40;;;12.30;88.30;;;;;;5067233;28;20702;-88
2022/04/07 09:35:19;;;;;;;0.40;0.40;;;;;;;;;;5067221;28;20625;-89
2022/04/07 09:37:47;;;;;;;1.23;0.33;;;;;;;;;;5069948;28;20610;-89
2022/04/07 09:40:18;;;;;;;4.00;0.60;;;12.00;90.60;;;;;;5067797;28;20747;-88
2022/04/07 09:42:45;;;;;;;0.50;0.47;;;12.00;90.80;;;;;;5068932;28;20207;-89
2022/04/07 09:45:14;;;;;;;0.70;0.40;;;11.80;92.60;;;;;;5067875;28;21122;-89
2022/04/07 09:47:42;;;;;;;0.40;0.40;;;11.60;92.50;;;;;;5069318;28;20648;-89
2022/04/07 09:50:20;;;;;;;0.90;0.50;;;11.40;92.20;;;;;;5070831;28;20618;-89
2022/04/07 09:52:55;;;;;;;1.70;0.50;;;11.40;94.80;;;;;;5064122;28;20691;-88
2022/04/07 09:55:26;;;;;;;0.47;0.40;;;11.60;91.80;;;;;;5067546;28;20609;-89
2022/04/07 09:57:57;;;;;;;0.73;0.30;;;11.60;91.80;;;;;;5061791;28;20625;-89
2022/04/07 10:00:26;;;;;;;0.30;0.30;;;11.60;93.40;;;;;;5067328;28;20618;-89
2022/04/07 10:02:54;;;;;;;0.50;0.50;;;12.00;92.10;;;;;;5070180;28;20982;-88
2022/04/07 10:05:22;;;;;;;1.00;0.40;;;;;;;;;;5069191;28;20666;-89
2022/04/07 10:07:50;;;;;;;0.50;0.50;;;;;;;;;;5070895;28;20653;-88
2022/04/07 10:10:18;;;;;;;0.87;0.63;;;;;;;;;;5070708;28;20617;-89
2022/04/07 10:12:47;;;;;;;0.63;0.40;;;;;;;;;;5070665;28;20697;-88
2022/04/07 10:15:15;;;;;;;2.50;1.93;;;12.20;90.30;;;;;;5069496;28;21175;-88
2022/04/07 10:17:42;;;;;;;0.57;0.43;;;;;;;;;;5070695;28;20970;-89
2022/04/07 10:20:12;;;;;;;0.40;0.40;;;12.20;88.50;;;;;;5070136;28;20625;-88
2022/04/07 10:23:05;;;;;;;0.40;0.30;;;12.50;99.90;;;;;;5070516;28;21006;-90
2022/04/07 10:25:33;;;;;;;0.40;0.30;;;12.50;88.70;;;;;;5068886;28;20960;-87
2022/04/07 10:28:05;;;;;;;0.83;0.30;;;12.60;87.90;;;;;;5069945;28;20628;-89
2022/04/07 10:30:32;;;;;;;0.30;0.30;;;;;;;;;;5070246;28;20726;-90
2022/04/07 10:33:00;;;;;;;0.43;0.33;;;;;;;;;;5070302;28;20647;-89
2022/04/07 10:35:36;;;;;;;0.37;0.33;;;12.60;86.80;;;;;;5069306;28;20684;-89
2022/04/07 10:38:05;;;;;;;0.40;0.30;;;12.90;88.20;;;;;;5070060;28;20648;-88
2022/04/07 10:40:50;;;;;;;0.30;0.20;;;12.70;88.50;;;;;;5066082;28;20613;-89
2022/04/07 10:43:25;;;;;;;0.37;0.30;;;12.70;87.60;;;;;;5059445;28;20668;-87
2022/04/07 10:45:53;;;;;;;0.40;0.30;;;12.90;88.90;;;;;;5051976;28;20710;-88
2022/04/07 10:48:25;;;;;;;0.60;0.60;;;12.90;88.80;;;;;;5050343;28;20720;-89
2022/04/07 10:50:55;;;;;;;0.73;0.30;;;12.80;89.10;;;;;;5061814;28;20983;-90
2022/04/07 10:53:32;;;;;;;0.40;0.30;;;12.80;89.20;;;;;;5052843;28;20712;-89
2022/04/07 10:56:02;;;;;;;2.97;1.23;;;13.00;88.50;;;;;;5063026;28;20712;-89
2022/04/07 10:58:50;;;;;;;3.20;0.40;;;12.50;92.50;;;;;;5060288;28;21187;-87
2022/04/07 11:01:54;;;;;;;0.40;0.20;;;12.90;89.30;;;;;;5065813;28;20694;-88
2022/04/07 11:04:41;;;;;;;0.30;0.30;;;12.80;87.40;;;;;;5062909;28;20696;-88
2022/04/07 11:07:22;;;;;;;0.50;0.50;;;12.90;94.10;;;;;;5068205;28;20605;-90
2022/04/07 11:09:53;;;;;;;0.83;0.40;;;12.90;89.20;;;;;;5060288;28;20737;-88
2022/04/07 11:15:33;;;;;;;2.00;0.37;;;;;;;;;;5068879;28;20664;-90
2022/04/07 11:18:19;;;;;;;0.80;0.63;;;13.10;88.00;;;;;;5068532;28;20700;-89
2022/04/07 11:21:13;;;;;;;0.50;0.27;;;13.10;85.20;;;;;;5066202;28;20636;-89
2022/04/07 11:23:41;;;;;;;0.30;0.20;;;;;;;;;;5061226;28;20618;-89
2022/04/07 11:26:13;;;;;;;0.87;0.37;;;13.30;89.20;;;;;;5063229;28;20753;-89
2022/04/07 11:28:40;;;;;;;0.30;0.20;;;;;;;;;;5068371;28;21163;-87
2022/04/07 11:31:44;;;;;;;0.30;0.30;;;13.30;87.10;;;;;;5069583;28;20609;-91
2022/04/07 11:37:39;;;;;;;0.50;0.40;;;;;;;;;;5064637;28;20637;-90
2022/04/07 11:40:25;;;;;;;0.40;0.40;;;;;;;;;;5063106;28;20625;-90
2022/04/07 11:42:52;;;;;;;0.97;0.30;;;;;;;;;;5066162;28;20623;-88
2022/04/07 11:45:19;;;;;;;0.40;0.30;;;;;;;;;;5063747;28;20703;-89
2022/04/07 11:47:50;;;;;;;0.60;0.43;;;13.40;85.70;;;;;;5067400;28;21458;-89
2022/04/07 11:50:20;;;;;;;0.77;0.30;;;13.20;85.40;;;;;;5066298;28;20748;-89
2022/04/07 11:52:50;;;;;;;0.80;0.40;;;13.20;86.70;;;;;;5059024;28;20740;-89
2022/04/07 11:55:28;;;;;;;0.40;0.20;;;;;;;;;;5066826;28;20671;-89
2022/04/07 11:57:59;;;;;;;0.70;0.30;;;;;;;;;;5071658;28;20719;-90
2022/04/07 12:00:30;;;;;;;1.90;0.40;;;13.10;87.90;;;;;;5062811;28;21045;-90
2022/04/07 12:03:02;;;;;;;0.70;0.20;;;12.00;85.20;;;;;;5066462;28;20617;-86
2022/04/07 12:05:30;;;;;;;1.33;0.37;;;;;;;;;;5063248;28;20644;-88
2022/04/07 12:07:57;;;;;;;0.50;0.30;;;;;;;;;;5057205;28;20633;-86
2022/04/07 12:10:24;;;;;;;1.17;0.43;;;;;;;;;;5054975;28;20654;-87
2022/04/07 12:12:52;;;;;;;0.60;0.30;;;;;;;;;;5062520;28;20621;-87
2022/04/07 12:15:19;;;;;;;0.53;0.23;;;;;;;;;;5053320;28;20720;-85
2022/04/07 12:17:58;;;;;;;0.57;0.30;;;12.40;99.90;;;;;;5058281;28;20637;-86
2022/04/07 12:20:27;;;;;;;0.50;0.30;;;12.60;89.20;;;;;;5064988;28;20648;-87
2022/04/07 12:23:05;;;;;;;0.50;0.50;;;12.60;89.70;;;;;;5048236;28;20679;-87
2022/04/07 12:25:32;;;;;;;0.40;0.33;;;;;;;;;;5062620;28;21151;-86
2022/04/07 12:28:07;;;;;;;1.50;0.40;;;12.90;91.10;;;;;;5067631;28;20653;-87
2022/04/07 12:30:44;;;;;;;1.27;0.50;;;13.10;90.70;;;;;;5068112;28;20660;-86
2022/04/07 12:33:12;;;;;;;0.30;0.27;;;;;;;;;;5067901;28;20698;-86
2022/04/07 12:35:47;;;;;;;1.40;0.50;;;;;;;;;;5066678;28;21014;-86
2022/04/07 12:38:14;;;;;;;0.40;0.27;;;12.40;90.40;;;;;;5067120;28;21162;-87
2022/04/07 12:40:41;;;;;;;0.40;0.30;;;;;;;;;;5061098;28;20686;-88
2022/04/07 12:43:08;;;;;;;2.10;0.30;;;;;;;;;;5067612;28;21193;-85
2022/04/07 12:45:36;;;;;;;0.30;0.20;;;;;;;;;;5066397;28;21370;-87
2022/04/07 12:48:05;;;;;;;0.83;0.20;;;12.40;90.20;;;;;;5050758;28;20626;-88
2022/04/07 12:50:33;;;;;;;0.40;0.20;;;12.20;99.90;;;;;;5067551;28;20736;-87
2022/04/07 12:53:02;;;;;;;1.23;0.73;;;12.30;99.90;;;;;;5067489;28;20624;-88
2022/04/07 12:55:35;;;;;;;3.70;0.90;;;12.30;99.90;;;;;;5066372;28;20658;-88
2022/04/07 12:58:02;;;;;;;1.13;0.30;;;;;;;;;;5067831;28;20613;-87
2022/04/07 13:00:31;;;;;;;1.13;0.30;;;12.30;90.70;;;;;;5067675;28;20629;-87
2022/04/07 13:03:01;;;;;;;0.60;0.40;;;12.40;90.70;;;;;;5068031;28;20655;-88
2022/04/07 13:05:30;;;;;;;0.43;0.43;;;12.20;90.80;;;;;;5064643;28;21355;-87
2022/04/07 13:07:58;;;;;;;0.40;0.40;;;12.10;91.20;;;;;;5067783;28;20617;-87
2022/04/07 13:10:27;;;;;;;0.50;0.27;;;11.90;91.20;;;;;;5067491;28;20620;-87
2022/04/07 13:12:54;;;;;;;0.50;0.30;;;;;;;;;;5066761;28;20709;-87
2022/04/07 13:15:21;;;;;;;1.83;0.40;;;;;;;;;;5067225;28;20625;-88
2022/04/07 13:17:49;;;;;;;0.40;0.33;;;;;;;;;;5068688;28;20628;-88
2022/04/07 13:20:16;;;;;;;0.33;0.30;;;;;;;;;;5067823;28;20730;-87
2022/04/07 13:22:43;;;;;;;1.70;0.30;;;;;;;;;;5067858;28;20727;-86
2022/04/07 13:25:11;;;;;;;0.37;0.33;;;12.50;90.90;;;;;;5067303;28;20755;-87
2022/04/07 13:27:40;;;;;;;0.40;0.30;;;12.60;91.60;;;;;;5067687;28;20641;-86
2022/04/07 13:30:10;;;;;;;0.67;0.30;;;;;;;;;;5067801;28;20628;-87
2022/04/07 13:32:37;;;;;;;1.00;0.53;;;;;;;;;;5071156;28;21175;-89
2022/04/07 13:35:05;;;;;;;0.40;0.30;;;;;;;;;;5065193;28;20633;-86
2022/04/07 13:37:32;;;;;;;3.17;0.43;;;;;;;;;;5066845;28;21218;-88
2022/04/07 13:40:00;;;;;;;0.40;0.27;;;;;;;;;;5071158;28;20640;-87
2022/04/07 13:42:27;;;;;;;0.80;0.40;;;;;;;;;;5070852;28;20965;-87
2022/04/07 13:44:55;;;;;;;0.70;0.57;;;;;;;;;;5070842;28;20680;-89
2022/04/07 13:47:23;;;;;;;0.50;0.40;;;;;;;;;;5065409;28;20671;-87
2022/04/07 13:49:50;;;;;;;0.30;0.20;;;;;;;;;;5070387;28;20707;-87
2022/04/07 13:52:17;;;;;;;1.07;0.40;;;;;;;;;;5070429;28;20656;-87
2022/04/07 13:54:44;;;;;;;0.40;0.40;;;;;;;;;;5070879;28;20664;-88
2022/04/07 13:57:11;;;;;;;0.50;0.47;;;;;;;;;;5071352;28;21001;-86
2022/04/07 13:59:40;;;;;;;0.37;0.30;;;;;;;;;;5070176;28;21214;-88
2022/04/07 14:02:09;;;;;;;0.40;0.40;;;;;;;;;;5059297;28;20712;-87
2022/04/07 14:04:36;;;;;;;0.50;0.40;;;;;;;;;;5061350;28;20626;-87
2022/04/07 14:07:03;;;;;;;0.30;0.30;;;;;;;;;;5069659;28;20727;-87
2022/04/07 14:09:31;;;;;;;1.33;0.40;;;;;;;;;;5070495;28;20612;-88
2022/04/07 14:11:58;;;;;;;2.30;0.40;;;;;;;;;;5069790;28;21212;-87
2022/04/07 14:14:26;;;;;;;0.30;0.30;;;;;;;;;;5062157;28;20613;-87
2022/04/07 14:16:53;;;;;;;1.10;0.40;;;;;;;;;;5065015;28;21031;-86
2022/04/07 14:19:22;;;;;;;0.40;0.30;;;;;;;;;;5067388;28;20712;-89